sensor_id;sensor_type;location;lat;lon;timestamp;pressure;altitude;pressure_sealevel;temperature;humidity
73024;BME280;61199;47.526;8.538;2022-11-15T00:00:47;96363.41;;;9.42;73.69
73024;BME280;61199;47.526;8.538;2022-11-15T00:03:15;96359.25;;;9.40;73.81
73024;BME280;61199;47.526;8.538;2022-11-15T00:05:42;96374.44;;;9.46;73.92
73024;BME280;61199;47.526;8.538;2022-11-15T00:08:09;96380.75;;;9.43;73.80
73024;BME280;61199;47.526;8.538;2022-11-15T00:10:36;96370.97;;;9.45;74.12
73024;BME280;61199;47.526;8.538;2022-11-15T00:13:12;96377.88;;;9.46;73.79
73024;BME280;61199;47.526;8.538;2022-11-15T00:15:40;96365.25;;;9.31;74.89
73024;BME280;61199;47.526;8.538;2022-11-15T00:18:12;96357.88;;;9.36;74.70
73024;BME280;61199;47.526;8.538;2022-11-15T00:20:39;96350.16;;;9.34;74.86
73024;BME280;61199;47.526;8.538;2022-11-15T00:23:06;96344.16;;;9.43;74.81
73024;BME280;61199;47.526;8.538;2022-11-15T00:25:33;96348.88;;;9.49;74.58
73024;BME280;61199;47.526;8.538;2022-11-15T00:28:00;96354.34;;;9.46;74.59
73024;BME280;61199;47.526;8.538;2022-11-15T00:30:27;96359.13;;;9.41;74.48
73024;BME280;61199;47.526;8.538;2022-11-15T00:32:54;96347.97;;;9.39;74.31
73024;BME280;61199;47.526;8.538;2022-11-15T00:35:21;96353.66;;;9.44;74.31
73024;BME280;61199;47.526;8.538;2022-11-15T00:37:47;96346.13;;;9.30;74.76
73024;BME280;61199;47.526;8.538;2022-11-15T00:40:14;96337.50;;;9.39;74.15
73024;BME280;61199;47.526;8.538;2022-11-15T00:42:41;96333.97;;;9.40;74.12
73024;BME280;61199;47.526;8.538;2022-11-15T00:45:09;96331.34;;;9.40;73.75
73024;BME280;61199;47.526;8.538;2022-11-15T00:47:35;96330.91;;;9.35;73.87
73024;BME280;61199;47.526;8.538;2022-11-15T00:50:02;96332.94;;;9.32;73.89
73024;BME280;61199;47.526;8.538;2022-11-15T00:52:29;96340.22;;;8.87;75.14
73024;BME280;61199;47.526;8.538;2022-11-15T00:54:55;96346.38;;;8.13;77.68
73024;BME280;61199;47.526;8.538;2022-11-15T00:57:22;96362.88;;;7.58;79.82
73024;BME280;61199;47.526;8.538;2022-11-15T00:59:48;96352.81;;;7.54;81.38
73024;BME280;61199;47.526;8.538;2022-11-15T01:02:15;96363.00;;;7.79;81.27
73024;BME280;61199;47.526;8.538;2022-11-15T01:04:41;96357.38;;;8.16;80.34
73024;BME280;61199;47.526;8.538;2022-11-15T01:07:07;96354.41;;;8.43;79.33
73024;BME280;61199;47.526;8.538;2022-11-15T01:09:34;96345.78;;;8.63;78.78
73024;BME280;61199;47.526;8.538;2022-11-15T01:12:00;96348.53;;;8.81;77.85
73024;BME280;61199;47.526;8.538;2022-11-15T01:14:27;96341.88;;;8.88;77.42
73024;BME280;61199;47.526;8.538;2022-11-15T01:16:53;96339.31;;;8.98;76.98
73024;BME280;61199;47.526;8.538;2022-11-15T01:19:20;96329.91;;;9.06;76.28
73024;BME280;61199;47.526;8.538;2022-11-15T01:21:49;96328.66;;;9.10;76.51
73024;BME280;61199;47.526;8.538;2022-11-15T01:24:16;96311.81;;;9.14;75.86
73024;BME280;61199;47.526;8.538;2022-11-15T01:26:42;96311.81;;;9.14;75.67
73024;BME280;61199;47.526;8.538;2022-11-15T01:29:08;96304.38;;;9.19;75.69
73024;BME280;61199;47.526;8.538;2022-11-15T01:31:35;96305.53;;;9.26;75.15
73024;BME280;61199;47.526;8.538;2022-11-15T01:34:01;96295.91;;;9.27;74.94
73024;BME280;61199;47.526;8.538;2022-11-15T01:36:28;96286.84;;;9.31;75.06
73024;BME280;61199;47.526;8.538;2022-11-15T01:38:56;96291.81;;;9.34;75.06
73024;BME280;61199;47.526;8.538;2022-11-15T01:41:28;96284.13;;;9.32;75.25
73024;BME280;61199;47.526;8.538;2022-11-15T01:43:57;96281.56;;;9.21;75.59
73024;BME280;61199;47.526;8.538;2022-11-15T01:46:46;96288.09;;;9.06;75.41
73024;BME280;61199;47.526;8.538;2022-11-15T01:49:18;96288.53;;;9.11;75.64
73024;BME280;61199;47.526;8.538;2022-11-15T01:51:45;96283.25;;;9.22;75.57
73024;BME280;61199;47.526;8.538;2022-11-15T01:54:15;96286.28;;;9.27;75.10
73024;BME280;61199;47.526;8.538;2022-11-15T01:56:48;96288.00;;;9.38;74.87
73024;BME280;61199;47.526;8.538;2022-11-15T01:59:16;96280.28;;;9.36;74.97
73024;BME280;61199;47.526;8.538;2022-11-15T02:01:43;96276.69;;;9.37;74.67
73024;BME280;61199;47.526;8.538;2022-11-15T02:04:18;96266.81;;;9.41;74.62
73024;BME280;61199;47.526;8.538;2022-11-15T02:06:48;96270.97;;;9.43;74.81
73024;BME280;61199;47.526;8.538;2022-11-15T02:09:15;96278.34;;;9.38;74.96
73024;BME280;61199;47.526;8.538;2022-11-15T02:11:43;96283.97;;;9.34;75.07
73024;BME280;61199;47.526;8.538;2022-11-15T02:14:11;96279.69;;;9.33;75.11
73024;BME280;61199;47.526;8.538;2022-11-15T02:17:06;96276.91;;;9.25;75.40
73024;BME280;61199;47.526;8.538;2022-11-15T02:19:56;96288.97;;;9.16;75.69
73024;BME280;61199;47.526;8.538;2022-11-15T02:22:57;96288.22;;;9.05;76.29
73024;BME280;61199;47.526;8.538;2022-11-15T02:25:46;96279.03;;;9.10;76.03
73024;BME280;61199;47.526;8.538;2022-11-15T02:28:45;96272.72;;;9.13;76.70
73024;BME280;61199;47.526;8.538;2022-11-15T02:37:00;96249.59;;;9.38;75.70
73024;BME280;61199;47.526;8.538;2022-11-15T02:39:51;96242.03;;;9.35;75.60
73024;BME280;61199;47.526;8.538;2022-11-15T02:42:26;96239.88;;;9.40;75.82
73024;BME280;61199;47.526;8.538;2022-11-15T02:45:16;96236.69;;;9.37;75.81
73024;BME280;61199;47.526;8.538;2022-11-15T02:47:47;96226.78;;;9.40;75.79
73024;BME280;61199;47.526;8.538;2022-11-15T02:50:20;96223.63;;;9.46;75.60
73024;BME280;61199;47.526;8.538;2022-11-15T02:52:51;96236.00;;;9.44;75.50
73024;BME280;61199;47.526;8.538;2022-11-15T02:55:34;96228.44;;;9.41;75.67
73024;BME280;61199;47.526;8.538;2022-11-15T03:00:47;96222.00;;;9.15;76.68
73024;BME280;61199;47.526;8.538;2022-11-15T03:03:26;96228.75;;;9.18;76.43
73024;BME280;61199;47.526;8.538;2022-11-15T03:11:15;96224.19;;;9.40;75.98
73024;BME280;61199;47.526;8.538;2022-11-15T03:16:34;96212.47;;;9.44;75.84
73024;BME280;61199;47.526;8.538;2022-11-15T03:21:39;96214.81;;;9.38;76.21
73024;BME280;61199;47.526;8.538;2022-11-15T03:24:07;96223.91;;;9.43;75.98
73024;BME280;61199;47.526;8.538;2022-11-15T03:26:36;96219.47;;;9.34;76.14
73024;BME280;61199;47.526;8.538;2022-11-15T03:29:20;96210.84;;;9.43;76.18
73024;BME280;61199;47.526;8.538;2022-11-15T03:32:03;96209.88;;;9.44;75.72
73024;BME280;61199;47.526;8.538;2022-11-15T03:34:41;96192.41;;;9.54;75.72
73024;BME280;61199;47.526;8.538;2022-11-15T03:37:12;96193.66;;;9.50;75.97
73024;BME280;61199;47.526;8.538;2022-11-15T03:39:39;96199.19;;;9.57;75.49
73024;BME280;61199;47.526;8.538;2022-11-15T03:44:59;96186.66;;;9.60;75.79
73024;BME280;61199;47.526;8.538;2022-11-15T03:47:51;96188.72;;;9.66;75.42
73024;BME280;61199;47.526;8.538;2022-11-15T03:50:20;96188.72;;;9.66;74.61
73024;BME280;61199;47.526;8.538;2022-11-15T03:52:49;96200.09;;;9.46;75.62
73024;BME280;61199;47.526;8.538;2022-11-15T03:55:18;96200.91;;;9.37;75.73
73024;BME280;61199;47.526;8.538;2022-11-15T03:57:47;96190.53;;;9.26;76.12
73024;BME280;61199;47.526;8.538;2022-11-15T04:00:14;96205.59;;;9.04;77.39
73024;BME280;61199;47.526;8.538;2022-11-15T04:02:41;96203.34;;;8.69;78.35
73024;BME280;61199;47.526;8.538;2022-11-15T04:05:07;96200.19;;;8.75;78.87
73024;BME280;61199;47.526;8.538;2022-11-15T04:07:34;96204.72;;;8.53;79.67
73024;BME280;61199;47.526;8.538;2022-11-15T04:10:01;96196.75;;;8.45;80.01
73024;BME280;61199;47.526;8.538;2022-11-15T04:12:37;96198.44;;;8.56;80.25
73024;BME280;61199;47.526;8.538;2022-11-15T04:15:09;96194.16;;;8.75;79.46
73024;BME280;61199;47.526;8.538;2022-11-15T04:17:43;96180.13;;;8.96;79.00
73024;BME280;61199;47.526;8.538;2022-11-15T04:20:19;96177.28;;;9.09;78.32
73024;BME280;61199;47.526;8.538;2022-11-15T04:23:08;96167.69;;;9.19;77.82
73024;BME280;61199;47.526;8.538;2022-11-15T04:25:56;96166.63;;;9.31;77.52
73024;BME280;61199;47.526;8.538;2022-11-15T04:28:24;96171.47;;;9.35;77.12
73024;BME280;61199;47.526;8.538;2022-11-15T04:30:50;96174.34;;;9.32;77.12
73024;BME280;61199;47.526;8.538;2022-11-15T04:33:17;96170.88;;;9.22;77.36
73024;BME280;61199;47.526;8.538;2022-11-15T04:35:43;96170.22;;;9.30;77.35
73024;BME280;61199;47.526;8.538;2022-11-15T04:38:10;96176.00;;;9.33;77.01
73024;BME280;61199;47.526;8.538;2022-11-15T04:40:37;96170.22;;;9.39;76.70
73024;BME280;61199;47.526;8.538;2022-11-15T04:43:04;96181.38;;;9.41;76.78
73024;BME280;61199;47.526;8.538;2022-11-15T04:45:30;96180.16;;;9.45;76.58
73024;BME280;61199;47.526;8.538;2022-11-15T04:47:57;96183.22;;;9.50;76.29
73024;BME280;61199;47.526;8.538;2022-11-15T04:50:23;96173.56;;;9.51;76.12
73024;BME280;61199;47.526;8.538;2022-11-15T04:52:51;96175.53;;;9.58;76.13
73024;BME280;61199;47.526;8.538;2022-11-15T04:55:19;96172.47;;;9.53;75.97
73024;BME280;61199;47.526;8.538;2022-11-15T04:57:45;96166.72;;;9.59;75.50
73024;BME280;61199;47.526;8.538;2022-11-15T05:00:14;96164.34;;;9.56;75.76
73024;BME280;61199;47.526;8.538;2022-11-15T05:02:40;96166.16;;;9.56;75.97
73024;BME280;61199;47.526;8.538;2022-11-15T05:05:26;96157.31;;;9.47;76.19
73024;BME280;61199;47.526;8.538;2022-11-15T05:07:52;96155.13;;;9.52;75.90
73024;BME280;61199;47.526;8.538;2022-11-15T05:10:18;96150.44;;;9.46;76.08
73024;BME280;61199;47.526;8.538;2022-11-15T05:12:46;96143.03;;;9.51;75.83
73024;BME280;61199;47.526;8.538;2022-11-15T05:15:12;96147.69;;;9.48;76.05
73024;BME280;61199;47.526;8.538;2022-11-15T05:17:39;96144.41;;;9.46;76.13
73024;BME280;61199;47.526;8.538;2022-11-15T05:20:06;96145.19;;;9.37;76.29
73024;BME280;61199;47.526;8.538;2022-11-15T05:22:32;96152.47;;;9.33;76.11
73024;BME280;61199;47.526;8.538;2022-11-15T05:24:59;96155.09;;;9.33;76.43
73024;BME280;61199;47.526;8.538;2022-11-15T05:27:25;96149.28;;;8.90;77.27
73024;BME280;61199;47.526;8.538;2022-11-15T05:29:51;96145.31;;;8.96;77.93
73024;BME280;61199;47.526;8.538;2022-11-15T05:32:18;96139.81;;;8.89;78.18
73024;BME280;61199;47.526;8.538;2022-11-15T05:34:45;96133.41;;;9.03;77.32
73024;BME280;61199;47.526;8.538;2022-11-15T05:37:12;96136.03;;;9.12;77.58
73024;BME280;61199;47.526;8.538;2022-11-15T05:39:38;96124.38;;;9.16;77.20
73024;BME280;61199;47.526;8.538;2022-11-15T05:42:10;96129.75;;;9.24;77.18
73024;BME280;61199;47.526;8.538;2022-11-15T05:44:41;96127.84;;;9.26;77.10
73024;BME280;61199;47.526;8.538;2022-11-15T05:47:24;96125.66;;;9.31;76.94
73024;BME280;61199;47.526;8.538;2022-11-15T05:49:53;96125.66;;;9.31;76.49
73024;BME280;61199;47.526;8.538;2022-11-15T05:52:24;96129.75;;;9.34;76.32
73024;BME280;61199;47.526;8.538;2022-11-15T05:54:52;96131.94;;;9.19;76.66
73024;BME280;61199;47.526;8.538;2022-11-15T05:57:19;96128.47;;;9.09;76.84
73024;BME280;61199;47.526;8.538;2022-11-15T05:59:45;96129.16;;;9.11;76.84
73024;BME280;61199;47.526;8.538;2022-11-15T06:02:11;96129.88;;;9.13;76.59
73024;BME280;61199;47.526;8.538;2022-11-15T06:04:38;96129.88;;;9.13;76.24
73024;BME280;61199;47.526;8.538;2022-11-15T06:07:05;96133.41;;;9.12;76.44
73024;BME280;61199;47.526;8.538;2022-11-15T06:09:31;96121.19;;;9.13;76.43
73024;BME280;61199;47.526;8.538;2022-11-15T06:11:57;96118.53;;;9.03;76.57
73024;BME280;61199;47.526;8.538;2022-11-15T06:14:24;96125.28;;;9.06;76.39
73024;BME280;61199;47.526;8.538;2022-11-15T06:16:50;96126.66;;;9.00;76.32
73024;BME280;61199;47.526;8.538;2022-11-15T06:19:17;96127.09;;;9.05;76.60
73024;BME280;61199;47.526;8.538;2022-11-15T06:21:43;96133.00;;;9.07;76.21
73024;BME280;61199;47.526;8.538;2022-11-15T06:24:10;96128.06;;;9.04;76.36
73024;BME280;61199;47.526;8.538;2022-11-15T06:26:36;96123.25;;;9.09;76.30
73024;BME280;61199;47.526;8.538;2022-11-15T06:29:03;96123.94;;;9.11;76.39
73024;BME280;61199;47.526;8.538;2022-11-15T06:31:30;96129.72;;;9.15;76.60
73024;BME280;61199;47.526;8.538;2022-11-15T06:33:57;96139.59;;;9.11;76.61
73024;BME280;61199;47.526;8.538;2022-11-15T06:36:23;96126.41;;;9.13;76.92
73024;BME280;61199;47.526;8.538;2022-11-15T06:38:49;96122.97;;;9.12;76.68
73024;BME280;61199;47.526;8.538;2022-11-15T06:41:16;96124.47;;;9.05;77.07
73024;BME280;61199;47.526;8.538;2022-11-15T06:43:43;96119.84;;;9.18;76.76
73024;BME280;61199;47.526;8.538;2022-11-15T06:46:09;96121.19;;;9.13;76.55
73024;BME280;61199;47.526;8.538;2022-11-15T06:48:36;96125.56;;;9.12;76.72
73024;BME280;61199;47.526;8.538;2022-11-15T06:51:03;96128.34;;;9.11;76.89
73024;BME280;61199;47.526;8.538;2022-11-15T06:53:30;96129.16;;;9.11;76.89
73024;BME280;61199;47.526;8.538;2022-11-15T06:56:02;96127.78;;;9.07;77.14
73024;BME280;61199;47.526;8.538;2022-11-15T06:58:29;96126.84;;;9.18;76.86
73024;BME280;61199;47.526;8.538;2022-11-15T07:01:07;96122.56;;;9.07;76.75
73024;BME280;61199;47.526;8.538;2022-11-15T07:03:37;96131.75;;;9.11;76.97
73024;BME280;61199;47.526;8.538;2022-11-15T07:06:05;96124.47;;;9.05;77.00
73024;BME280;61199;47.526;8.538;2022-11-15T07:08:33;96128.84;;;8.95;77.35
73024;BME280;61199;47.526;8.538;2022-11-15T07:11:01;96122.72;;;9.15;77.03
73024;BME280;61199;47.526;8.538;2022-11-15T07:13:29;96127.66;;;9.18;76.71
73024;BME280;61199;47.526;8.538;2022-11-15T07:16:08;96123.69;;;9.24;76.46
73024;BME280;61199;47.526;8.538;2022-11-15T07:18:36;96124.38;;;9.26;76.49
73024;BME280;61199;47.526;8.538;2022-11-15T07:21:07;96129.88;;;9.23;76.66
73024;BME280;61199;47.526;8.538;2022-11-15T07:23:40;96130.44;;;9.26;76.44
73024;BME280;61199;47.526;8.538;2022-11-15T07:26:08;96123.28;;;9.28;76.52
73024;BME280;61199;47.526;8.538;2022-11-15T07:28:35;96125.38;;;9.34;76.28
73024;BME280;61199;47.526;8.538;2022-11-15T07:31:06;96119.63;;;9.40;76.47
73024;BME280;61199;47.526;8.538;2022-11-15T07:33:34;96118.38;;;9.44;76.23
73024;BME280;61199;47.526;8.538;2022-11-15T07:36:01;96117.41;;;9.45;76.11
73024;BME280;61199;47.526;8.538;2022-11-15T07:38:29;96121.97;;;9.43;75.89
73024;BME280;61199;47.526;8.538;2022-11-15T07:41:01;96128.69;;;9.36;76.40
73024;BME280;61199;47.526;8.538;2022-11-15T07:43:27;96128.41;;;9.39;76.15
73024;BME280;61199;47.526;8.538;2022-11-15T07:45:56;96123.44;;;9.36;76.58
73024;BME280;61199;47.526;8.538;2022-11-15T07:48:25;96121.13;;;9.43;76.20
73024;BME280;61199;47.526;8.538;2022-11-15T07:51:11;96119.91;;;9.56;76.12
73024;BME280;61199;47.526;8.538;2022-11-15T07:53:40;96116.59;;;9.54;75.88
73024;BME280;61199;47.526;8.538;2022-11-15T07:56:07;96115.63;;;9.46;76.24
73024;BME280;61199;47.526;8.538;2022-11-15T07:58:33;96111.91;;;9.39;76.55
73024;BME280;61199;47.526;8.538;2022-11-15T08:01:04;96113.59;;;9.49;76.73
73024;BME280;61199;47.526;8.538;2022-11-15T08:03:32;96115.09;;;9.42;76.90
73024;BME280;61199;47.526;8.538;2022-11-15T08:06:00;96127.91;;;9.55;76.77
73024;BME280;61199;47.526;8.538;2022-11-15T08:08:26;96119.50;;;9.61;76.66
73024;BME280;61199;47.526;8.538;2022-11-15T08:10:53;96114.97;;;9.72;76.61
73024;BME280;61199;47.526;8.538;2022-11-15T08:13:20;96104.50;;;9.63;76.93
73024;BME280;61199;47.526;8.538;2022-11-15T08:15:47;96113.44;;;9.70;76.83
73024;BME280;61199;47.526;8.538;2022-11-15T08:18:20;96113.72;;;9.67;77.49
73024;BME280;61199;47.526;8.538;2022-11-15T08:20:46;96103.25;;;9.76;77.13
73024;BME280;61199;47.526;8.538;2022-11-15T08:23:12;96100.66;;;9.86;76.56
73024;BME280;61199;47.526;8.538;2022-11-15T08:25:39;96096.53;;;9.93;76.56
73024;BME280;61199;47.526;8.538;2022-11-15T08:28:08;96094.47;;;9.96;76.30
73024;BME280;61199;47.526;8.538;2022-11-15T08:30:41;96095.94;;;9.99;76.24
73024;BME280;61199;47.526;8.538;2022-11-15T08:33:13;96091.06;;;10.05;76.24
73024;BME280;61199;47.526;8.538;2022-11-15T08:35:40;96096.41;;;10.13;75.68
73024;BME280;61199;47.526;8.538;2022-11-15T08:38:07;96092.13;;;10.12;75.66
73024;BME280;61199;47.526;8.538;2022-11-15T08:40:33;96098.06;;;10.14;76.28
73024;BME280;61199;47.526;8.538;2022-11-15T08:43:01;96100.94;;;10.11;76.17
73024;BME280;61199;47.526;8.538;2022-11-15T08:45:29;96101.78;;;10.02;76.21
73024;BME280;61199;47.526;8.538;2022-11-15T08:47:56;96102.88;;;10.00;77.00
73024;BME280;61199;47.526;8.538;2022-11-15T08:50:22;96109.63;;;9.93;77.67
73024;BME280;61199;47.526;8.538;2022-11-15T08:52:49;96098.91;;;10.05;77.72
73024;BME280;61199;47.526;8.538;2022-11-15T08:55:15;96100.09;;;10.01;77.59
73024;BME280;61199;47.526;8.538;2022-11-15T08:57:43;96108.66;;;10.03;76.94
73024;BME280;61199;47.526;8.538;2022-11-15T09:00:09;96103.41;;;9.65;78.18
73024;BME280;61199;47.526;8.538;2022-11-15T09:02:38;96101.59;;;9.75;78.20
73024;BME280;61199;47.526;8.538;2022-11-15T09:05:05;96095.31;;;9.68;78.06
73024;BME280;61199;47.526;8.538;2022-11-15T09:07:38;96094.59;;;9.95;77.73
73024;BME280;61199;47.526;8.538;2022-11-15T09:10:08;96097.50;;;10.11;76.87
73024;BME280;61199;47.526;8.538;2022-11-15T09:12:34;96103.44;;;10.22;76.37
73024;BME280;61199;47.526;8.538;2022-11-15T09:15:01;96094.88;;;10.20;76.26
73024;BME280;61199;47.526;8.538;2022-11-15T09:17:27;96086.84;;;10.31;75.95
73024;BME280;61199;47.526;8.538;2022-11-15T09:19:54;96094.59;;;10.23;76.21
73024;BME280;61199;47.526;8.538;2022-11-15T09:22:20;96090.19;;;10.33;75.82
73024;BME280;61199;47.526;8.538;2022-11-15T09:24:47;96086.53;;;10.44;75.77
73024;BME280;61199;47.526;8.538;2022-11-15T09:27:13;96087.94;;;10.48;75.61
73024;BME280;61199;47.526;8.538;2022-11-15T09:29:40;96090.94;;;10.53;75.59
73024;BME280;61199;47.526;8.538;2022-11-15T09:32:06;96094.75;;;10.58;75.34
73024;BME280;61199;47.526;8.538;2022-11-15T09:34:33;96092.97;;;10.68;75.15
73024;BME280;61199;47.526;8.538;2022-11-15T09:36:59;96088.25;;;10.72;75.07
73024;BME280;61199;47.526;8.538;2022-11-15T09:39:26;96088.97;;;10.64;75.20
73024;BME280;61199;47.526;8.538;2022-11-15T09:42:03;96094.31;;;10.72;75.17
73024;BME280;61199;47.526;8.538;2022-11-15T09:44:47;96092.78;;;10.79;75.04
73024;BME280;61199;47.526;8.538;2022-11-15T09:49:53;96100.66;;;10.79;74.91
73024;BME280;61199;47.526;8.538;2022-11-15T09:52:23;96097.91;;;10.71;74.85
73024;BME280;61199;47.526;8.538;2022-11-15T09:54:51;96100.94;;;10.21;76.82
73024;BME280;61199;47.526;8.538;2022-11-15T09:57:30;96094.28;;;10.36;76.86
73024;BME280;61199;47.526;8.538;2022-11-15T10:00:09;96093.28;;;10.46;76.91
73024;BME280;61199;47.526;8.538;2022-11-15T10:05:24;96087.31;;;10.73;75.31
73024;BME280;61199;47.526;8.538;2022-11-15T10:10:29;96069.56;;;10.94;75.11
73024;BME280;61199;47.526;8.538;2022-11-15T10:12:57;96067.31;;;10.99;74.68
73024;BME280;61199;47.526;8.538;2022-11-15T10:15:25;96067.84;;;11.02;74.60
73024;BME280;61199;47.526;8.538;2022-11-15T10:22:50;96062.03;;;11.08;74.04
73024;BME280;61199;47.526;8.538;2022-11-15T10:25:35;96059.50;;;11.16;73.41
73024;BME280;61199;47.526;8.538;2022-11-15T10:28:13;96052.31;;;11.18;73.02
73024;BME280;61199;47.526;8.538;2022-11-15T10:30:48;96051.28;;;11.29;73.24
73024;BME280;61199;47.526;8.538;2022-11-15T10:33:38;96045.69;;;11.41;72.41
73024;BME280;61199;47.526;8.538;2022-11-15T10:46:34;96036.59;;;11.18;72.61
73024;BME280;61199;47.526;8.538;2022-11-15T10:49:27;96044.00;;;11.23;72.92
73024;BME280;61199;47.526;8.538;2022-11-15T10:54:49;96039.88;;;10.66;75.71
73024;BME280;61199;47.526;8.538;2022-11-15T10:57:29;96043.00;;;10.79;75.13
73024;BME280;61199;47.526;8.538;2022-11-15T11:00:06;96033.00;;;10.65;76.25
73024;BME280;61199;47.526;8.538;2022-11-15T11:02:40;96034.28;;;10.88;75.58
73024;BME280;61199;47.526;8.538;2022-11-15T11:05:31;96026.34;;;10.98;75.75
73024;BME280;61199;47.526;8.538;2022-11-15T11:10:36;96010.16;;;11.29;74.75
73024;BME280;61199;47.526;8.538;2022-11-15T11:15:55;95993.66;;;11.54;74.01
73024;BME280;61199;47.526;8.538;2022-11-15T11:18:33;95978.03;;;11.62;73.62
73024;BME280;61199;47.526;8.538;2022-11-15T11:21:07;95967.97;;;11.75;73.36
73024;BME280;61199;47.526;8.538;2022-11-15T11:23:44;95972.47;;;11.82;73.14
73024;BME280;61199;47.526;8.538;2022-11-15T11:26:32;95998.34;;;11.60;73.80
73024;BME280;61199;47.526;8.538;2022-11-15T11:29:31;95976.88;;;11.12;75.98
73024;BME280;61199;47.526;8.538;2022-11-15T11:34:40;95981.53;;;11.53;75.01
73024;BME280;61199;47.526;8.538;2022-11-15T11:37:17;95963.69;;;11.74;74.15
73024;BME280;61199;47.526;8.538;2022-11-15T11:42:58;95937.91;;;11.95;73.18
73024;BME280;61199;47.526;8.538;2022-11-15T11:48:14;95919.97;;;12.08;72.94
73024;BME280;61199;47.526;8.538;2022-11-15T11:50:46;95913.41;;;12.12;73.02
73024;BME280;61199;47.526;8.538;2022-11-15T11:53:25;95884.72;;;12.18;72.96
73024;BME280;61199;47.526;8.538;2022-11-15T11:55:56;95897.03;;;12.18;73.36
73024;BME280;61199;47.526;8.538;2022-11-15T11:58:35;95899.06;;;12.24;73.60
73024;BME280;61199;47.526;8.538;2022-11-15T12:03:43;95906.88;;;12.16;74.54
73024;BME280;61199;47.526;8.538;2022-11-15T12:06:21;95910.91;;;12.36;74.25
73024;BME280;61199;47.526;8.538;2022-11-15T12:12:04;95906.34;;;12.46;73.67
73024;BME280;61199;47.526;8.538;2022-11-15T12:14:49;95895.53;;;12.57;73.36
73024;BME280;61199;47.526;8.538;2022-11-15T12:17:25;95891.97;;;12.66;73.10
73024;BME280;61199;47.526;8.538;2022-11-15T12:19:56;95892.47;;;12.69;72.72
73024;BME280;61199;47.526;8.538;2022-11-15T12:22:44;95882.13;;;12.76;72.58
73024;BME280;61199;47.526;8.538;2022-11-15T12:27:58;95871.75;;;12.58;73.29
73024;BME280;61199;47.526;8.538;2022-11-15T12:30:41;95875.22;;;12.75;72.84
73024;BME280;61199;47.526;8.538;2022-11-15T12:33:30;95883.44;;;12.72;73.50
73024;BME280;61199;47.526;8.538;2022-11-15T12:36:03;95887.38;;;12.60;73.65
73024;BME280;61199;47.526;8.538;2022-11-15T12:41:17;95875.66;;;11.54;78.14
73024;BME280;61199;47.526;8.538;2022-11-15T12:43:46;95864.03;;;11.82;77.17
73024;BME280;61199;47.526;8.538;2022-11-15T12:48:52;95857.03;;;12.32;75.50
73024;BME280;61199;47.526;8.538;2022-11-15T12:51:21;95855.81;;;12.52;74.94
73024;BME280;61199;47.526;8.538;2022-11-15T12:53:48;95850.81;;;12.25;74.48
73024;BME280;61199;47.526;8.538;2022-11-15T12:58:44;95841.22;;;12.57;74.04
73024;BME280;61199;47.526;8.538;2022-11-15T13:06:50;95830.13;;;12.95;73.05
73024;BME280;61199;47.526;8.538;2022-11-15T13:12:04;95811.03;;;12.77;73.25
73024;BME280;61199;47.526;8.538;2022-11-15T13:19:47;95791.00;;;13.08;71.93
73024;BME280;61199;47.526;8.538;2022-11-15T13:22:14;95789.22;;;13.09;72.42
73024;BME280;61199;47.526;8.538;2022-11-15T13:25:00;95799.88;;;13.07;73.03
73024;BME280;61199;47.526;8.538;2022-11-15T13:27:27;95802.03;;;13.12;72.85
73024;BME280;61199;47.526;8.538;2022-11-15T13:29:54;95791.50;;;13.20;72.77
73024;BME280;61199;47.526;8.538;2022-11-15T13:32:21;95779.69;;;13.24;72.59
73024;BME280;61199;47.526;8.538;2022-11-15T13:34:49;95781.81;;;13.28;72.07
73024;BME280;61199;47.526;8.538;2022-11-15T13:39:49;95791.66;;;13.26;72.24
73024;BME280;61199;47.526;8.538;2022-11-15T13:42:17;95783.25;;;13.31;72.35
73024;BME280;61199;47.526;8.538;2022-11-15T13:44:59;95776.69;;;13.35;72.19
73024;BME280;61199;47.526;8.538;2022-11-15T13:47:27;95775.72;;;13.28;72.55
73024;BME280;61199;47.526;8.538;2022-11-15T13:49:56;95770.09;;;13.31;72.97
73024;BME280;61199;47.526;8.538;2022-11-15T13:52:31;95761.25;;;13.24;73.25
73024;BME280;61199;47.526;8.538;2022-11-15T13:55:11;95756.50;;;13.11;73.50
73024;BME280;61199;47.526;8.538;2022-11-15T13:57:51;95750.41;;;13.11;73.47
73024;BME280;61199;47.526;8.538;2022-11-15T14:02:51;95754.03;;;13.02;72.96
73024;BME280;61199;47.526;8.538;2022-11-15T14:05:21;95748.28;;;12.98;73.31
73024;BME280;61199;47.526;8.538;2022-11-15T14:10:44;95741.22;;;12.83;73.46
73024;BME280;61199;47.526;8.538;2022-11-15T14:13:28;95737.94;;;12.81;73.67
73024;BME280;61199;47.526;8.538;2022-11-15T14:16:15;95735.63;;;12.86;73.34
73024;BME280;61199;47.526;8.538;2022-11-15T14:18:46;95738.75;;;12.97;72.90
73024;BME280;61199;47.526;8.538;2022-11-15T14:21:14;95740.91;;;13.02;72.74
73024;BME280;61199;47.526;8.538;2022-11-15T14:23:40;95756.97;;;12.75;73.73
73024;BME280;61199;47.526;8.538;2022-11-15T14:26:31;95764.34;;;12.39;74.88
73024;BME280;61199;47.526;8.538;2022-11-15T14:29:24;95745.13;;;12.47;74.93
73024;BME280;61199;47.526;8.538;2022-11-15T14:31:51;95731.19;;;12.62;74.51
73024;BME280;61199;47.526;8.538;2022-11-15T14:34:17;95727.41;;;12.65;74.48
73024;BME280;61199;47.526;8.538;2022-11-15T14:36:43;95731.03;;;12.72;74.24
73024;BME280;61199;47.526;8.538;2022-11-15T14:39:10;95725.28;;;12.76;73.67
73024;BME280;61199;47.526;8.538;2022-11-15T14:41:36;95721.66;;;12.77;73.56
73024;BME280;61199;47.526;8.538;2022-11-15T14:44:06;95721.81;;;12.68;73.93
73024;BME280;61199;47.526;8.538;2022-11-15T14:46:35;95709.38;;;12.78;73.78
73024;BME280;61199;47.526;8.538;2022-11-15T14:49:01;95695.53;;;12.84;73.45
73024;BME280;61199;47.526;8.538;2022-11-15T14:51:28;95689.47;;;12.83;73.92
73024;BME280;61199;47.526;8.538;2022-11-15T14:53:54;95685.22;;;12.74;74.41
73024;BME280;61199;47.526;8.538;2022-11-15T14:56:21;95674.72;;;12.66;74.42
73024;BME280;61199;47.526;8.538;2022-11-15T14:58:47;95659.75;;;12.67;74.86
73024;BME280;61199;47.526;8.538;2022-11-15T15:01:19;95651.22;;;12.41;75.65
73024;BME280;61199;47.526;8.538;2022-11-15T15:03:46;95651.91;;;12.43;75.88
73024;BME280;61199;47.526;8.538;2022-11-15T15:06:13;95651.88;;;12.59;74.91